Terminal Aerodrome Forecast
Issued by NWS

Home | Current Version | Previous Version | Text Only | Print | Product List | Glossary On
Versions: 1 2 3 4 5 6 7 8 9 10 11 12 13 14 15 16 17 18 19
373
FTUS42 KMHX 260531
TAFISO
TAF
KISO 260531Z 2606/2706 07005KT P6SM BKN035
     FM262300 13005KT P6SM BKN050
     FM270000 13005KT P6SM SCT100
     FM270200 VRB04KT P6SM BKN100
      AMD LTD TO CLD VIS AND WIND=

USA.gov is the U.S. government's official web portal to all federal, state and local government web resources and services.